Rutledge, Missouri
Current Conditions -  °F | °C
As of 8:27 AM on Saturday 25 Oct 2014 (Local Time) from KIRK Reporting Station
Haze Haze  
Wind Chill: 52°   Ceiling: Unl
Heat Index: 52°   Visibility: 1mi
Dew Point: 52°   Wind: 3mph
Humidity: 100%   Direction: 330°NNW
Pressure: 30.05"   Gusts: NA
Location:  40.31°N, 92.09°W
Report Text: KIRK 251327Z AUTO 33003KT 1SM BR CLR 11/11 A3005 RMK AO2 T01110111
Loading
Personal Weather Stations






























Interactive Weather Map
Tropical Storm Tracking
New forecast layout! Learn more

10-Day Weather Forecast

Advertisements
Track Severe Weather on mobile